ADDS METAR Data INFO
IDs: Format: Raw Decoded Include TAF

Data at: 1836 UTC 16 Dec 2017

KPNA 161815Z AUTO 31004KT 1SM -SN SCT005 OVC014 M01/M02 A2982 RMK AO2
KPNA 161755Z AUTO 31003KT 1 1/2SM -SN SCT025 OVC033 M02/M02 A2983 RMK AO2
KPNA 161735Z AUTO 00000KT 2SM -SN OVC030 M02/M03 A2983 RMK AO2
KPNA 161715Z AUTO 00000KT 1 1/2SM -SN OVC030 M02/M03 A2984 RMK AO2
KPNA 161655Z AUTO 00000KT 3SM -SN SCT035 BKN045 OVC070 M02/M03 A2984 RMK AO2
KPNA 161635Z AUTO 00000KT 4SM -SN SCT015 BKN070 OVC080 M03/M03 A2983 RMK AO2
KPNA 161615Z AUTO 00000KT 1SM -SN OVC019 M03/M03 A2983 RMK AO2
KPNA 161555Z AUTO 00000KT 1 1/4SM -SN BKN016 OVC028 M03/M04 A2983 RMK AO2
KPNA 161535Z AUTO 00000KT 1/2SM -SN OVC016 M04/M04 A2984 RMK AO2
KPNA 161515Z AUTO 00000KT 1SM -SN OVC018 M03/M04 A2983 RMK AO2
KPNA 161455Z AUTO 00000KT 1 1/2SM -SN SCT013 OVC020 M04/M04 A2984 RMK AO2
KPNA 161435Z AUTO 00000KT 3SM -SN SCT018 BKN033 OVC039 M04/M04 A2984 RMK AO2
KPNA 161415Z AUTO 00000KT 5SM -SN OVC037 M04/M05 A2984 RMK AO2
KPNA 161355Z AUTO 00000KT 4SM -SN BKN037 OVC043 M04/M04 A2984 RMK AO2
KPNA 161335Z AUTO 00000KT 3SM -SN BKN031 OVC037 M04/M05 A2984 RMK AO2
KPNA 161315Z AUTO 00000KT 2 1/2SM -SN OVC027 M04/M04 A2984 RMK AO2
KPNA 161255Z AUTO 00000KT 2 1/2SM -SN BKN025 OVC033 M04/M05 A2984 RMK AO2
KPNA 161235Z AUTO 00000KT 4SM -SN SCT029 BKN035 OVC041 M05/M05 A2984 RMK AO2
KPNA 161215Z AUTO 00000KT 4SM -SN SCT020 SCT025 OVC039 M05/M05 A2984 RMK AO2
KPNA 161155Z AUTO 00000KT 3SM -SN SCT012 BKN026 OVC039 M05/M05 A2985 RMK AO2
KPNA 161135Z AUTO 00000KT 1 1/2SM -SN OVC012 M05/M05 A2985 RMK AO2
KPNA 161115Z AUTO 04003KT 1 1/2SM -SN OVC012 M05/M05 A2987 RMK AO2
KPNA 161055Z AUTO 02004KT 1SM SN OVC012 M05/M05 A2988 RMK AO2
KPNA 161035Z AUTO 36004KT 3/4SM SN OVC012 M05/M05 A2990 RMK AO2
KPNA 161015Z AUTO 00000KT 1 1/4SM -SN OVC012 M05/M06 A2990 RMK AO2
KPNA 160955Z AUTO 00000KT 1 1/4SM SN SCT008 OVC012 M05/M07 A2990 RMK AO2
KPNA 160935Z AUTO 28003KT 10SM SCT026 BKN033 OVC041 M04/M09 A2990 RMK AO2
KPNA 160915Z AUTO 26003KT 10SM SCT029 BKN038 OVC050 M05/M09 A2989 RMK AO2
KPNA 160855Z AUTO 00000KT 10SM OVC060 M05/M09 A2988 RMK AO2
KPNA 160835Z AUTO 00000KT 10SM OVC060 M05/M08 A2987 RMK AO2
KPNA 160815Z AUTO 00000KT 10SM OVC050 M06/M09 A2988 RMK AO2
KPNA 160755Z AUTO 00000KT 10SM BKN050 M06/M09 A2989 RMK AO2
KPNA 160735Z AUTO 00000KT 10SM SCT070 M07/M10 A2990 RMK AO2
KPNA 160715Z AUTO 32005KT 10SM SCT070 M07/M10 A2990 RMK AO2
KPNA 160655Z AUTO 28005KT 10SM CLR M07/M10 A2990 RMK AO2
KPNA 160635Z AUTO 30003KT 10SM CLR M06/M10 A2992 RMK AO2
KPNA 160615Z AUTO 00000KT 10SM CLR M07/M10 A2993 RMK AO2
KPNA 160555Z AUTO 00000KT 10SM CLR M07/M11 A2993 RMK AO2
KPNA 160535Z AUTO 28004KT 10SM CLR M07/M11 A2994 RMK AO2
KPNA 160515Z AUTO 00000KT 10SM CLR M07/M11 A2993 RMK AO2
KPNA 160455Z AUTO 00000KT 10SM CLR M07/M11 A2994 RMK AO2
KPNA 160435Z AUTO 00000KT 10SM CLR M07/M11 A2995 RMK AO2
KPNA 160415Z AUTO 00000KT 10SM CLR M07/M11 A2995 RMK AO2
KPNA 160355Z AUTO 00000KT 10SM CLR M06/M11 A2995 RMK AO2
KPNA 160335Z AUTO 30004KT 10SM CLR M07/M11 A2997 RMK AO2
KPNA 160315Z AUTO 00000KT 10SM CLR M06/M11 A2996 RMK AO2
KPNA 160255Z AUTO 31005KT 10SM CLR M06/M11 A2997 RMK AO2
KPNA 160235Z AUTO 27004KT 10SM CLR M05/M11 A2998 RMK AO2
KPNA 160215Z AUTO 29008KT 10SM CLR M04/M10 A2999 RMK AO2
KPNA 160155Z AUTO 29008KT 10SM CLR M03/M10 A3000 RMK AO2
KPNA 160135Z AUTO 28007KT 10SM CLR M04/M10 A2999 RMK AO2
KPNA 160115Z AUTO 30006KT 10SM CLR M03/M10 A2999 RMK AO2
KPNA 160055Z AUTO 29007KT 10SM CLR M03/M10 A2999 RMK AO2
KPNA 160035Z AUTO 29008KT 10SM CLR M03/M09 A2999 RMK AO2
KPNA 160015Z AUTO 29006KT 10SM CLR M02/M09 A2999 RMK AO2
KPNA 152355Z AUTO 28005KT 10SM CLR M01/M09 A2999 RMK AO2
KPNA 152335Z AUTO 28008KT 10SM CLR 00/M08 A3001 RMK AO2
KPNA 152315Z AUTO 28009KT 10SM CLR 01/M08 A3001 RMK AO2
KPNA 152255Z AUTO 29009G15KT 10SM CLR 03/M10 A3002 RMK AO2
KPNA 152235Z AUTO 30009G14KT 10SM CLR 03/M10 A3003 RMK AO2
KPNA 152215Z AUTO 30007KT 10SM CLR 03/M10 A3004 RMK AO2
KPNA 152155Z AUTO 31008KT 10SM CLR 03/M09 A3005 RMK AO2
KPNA 152135Z AUTO 31007KT 10SM CLR 03/M10 A3005 RMK AO2
KPNA 152115Z AUTO 32008KT 10SM CLR 04/M09 A3006 RMK AO2
KPNA 152055Z AUTO 33010KT 10SM CLR 04/M10 A3007 RMK AO2
KPNA 152035Z AUTO 32011G15KT 10SM CLR 04/M10 A3008 RMK AO2
KPNA 152015Z AUTO 32007KT 10SM CLR 04/M09 A3009 RMK AO2
KPNA 151955Z AUTO 33008KT 10SM CLR 03/M08 A3011 RMK AO2
KPNA 151935Z AUTO 31009G15KT 10SM CLR 03/M09 A3012 RMK AO2
KPNA 151915Z AUTO 32009G15KT 10SM CLR 03/M09 A3013 RMK AO2
KPNA 151855Z AUTO 29010KT 10SM CLR 03/M09 A3014 RMK AO2
KPNA 151835Z AUTO 29008KT 10SM CLR 02/M08 A3015 RMK AO2
KPNA 151815Z AUTO 30009KT 10SM CLR 02/M08 A3016 RMK AO2
KPNA 151755Z AUTO 28011KT 10SM CLR 01/M08 A3018 RMK AO2
KPNA 151735Z AUTO 30011KT 10SM CLR 00/M08 A3018 RMK AO2
KPNA 151715Z AUTO 32008KT 10SM CLR 00/M08 A3019 RMK AO2
KPNA 151655Z AUTO 30009KT 10SM CLR M01/M08 A3019 RMK AO2
KPNA 151635Z AUTO 30010KT 10SM CLR M02/M08 A3019 RMK AO2
KPNA 151615Z AUTO 28010KT 10SM CLR M05/M10 A3018 RMK AO2
KPNA 151550Z AUTO 28009KT 10SM CLR M06/M10 A3019 RMK AO2
KPNA 151535Z AUTO 29009KT 10SM CLR M06/M10 A3019 RMK AO2
KPNA 151515Z AUTO 29007KT 10SM CLR M06/M11 A3019 RMK AO2
KPNA 151455Z AUTO 30009KT 10SM CLR M07/M11 A3019 RMK AO2
KPNA 151435Z AUTO 00000KT 10SM CLR M08/M12 A3019 RMK AO2
KPNA 151415Z AUTO 00000KT 10SM CLR M07/M12 A3021 RMK AO2
KPNA 151355Z AUTO 33003KT 10SM CLR M07/M12 A3019 RMK AO2
KPNA 151335Z AUTO 32006KT 10SM CLR M08/M12 A3020 RMK AO2
KPNA 151315Z AUTO 32008KT 10SM CLR M07/M12 A3021 RMK AO2
KPNA 151255Z AUTO 30006KT 10SM CLR M08/M12 A3020 RMK AO2
KPNA 151235Z AUTO 32008KT 10SM CLR M08/M12 A3019 RMK AO2
KPNA 151215Z AUTO 32004KT 10SM CLR M10/M13 A3019 RMK AO2
KPNA 151155Z AUTO 33003KT 10SM CLR M10/M13 A3019 RMK AO2
KPNA 151135Z AUTO 36005KT 10SM CLR M11/M15 A3020 RMK AO2
KPNA 151115Z AUTO 33010KT 10SM CLR M10/M13 A3021 RMK AO2
KPNA 151055Z AUTO 00000KT 10SM CLR M11/M15 A3022 RMK AO2
KPNA 151035Z AUTO 05005KT 10SM CLR M11/M15 A3022 RMK AO2
KPNA 151015Z AUTO 36006KT 10SM CLR M10/M13 A3022 RMK AO2
KPNA 150955Z AUTO 30009KT 10SM CLR M08/M12 A3023 RMK AO2
KPNA 150935Z AUTO 30007KT 10SM CLR M12/M13 A3024 RMK AO2
KPNA 150915Z AUTO 32005KT 10SM CLR M11/M12 A3024 RMK AO2
KPNA 150855Z AUTO 00000KT 10SM CLR M12/M13 A3024 RMK AO2
KPNA 150835Z AUTO 00000KT 10SM CLR M12/M13 A3024 RMK AO2
KPNA 150815Z AUTO 25004KT 10SM CLR M13/M13 A3024 RMK AO2
KPNA 150755Z AUTO 00000KT 10SM CLR M13/M14 A3025 RMK AO2
KPNA 150735Z AUTO 29006KT 10SM CLR M13/M14 A3027 RMK AO2
KPNA 150715Z AUTO 31006KT 10SM CLR M13/M14 A3027 RMK AO2
KPNA 150655Z AUTO 32003KT 10SM CLR M13/M15 A3027 RMK AO2 TSNO